Time,TemperatureF,DewpointF,PressureIn,WindDirection,WindDirectionDegrees,WindSpeedMPH,WindSpeedGustMPH,Humidity,HourlyPrecipIn,Conditions,Clouds,dailyrainin,SoftwareType,DateUTC
2013-05-29 00:03:00,79.0,-99.9,30.02,ESE,118,6.0,13.0,-999,-99.99,,,-99.99,,2013-05-29 04:03:00,
2013-05-29 00:13:00,79.0,-99.9,30.02,ESE,107,10.0,16.0,-999,-99.99,,,-99.99,,2013-05-29 04:13:00,
2013-05-29 00:23:00,79.0,-99.9,30.02,East,101,11.0,16.0,-999,-99.99,,,-99.99,,2013-05-29 04:23:00,
2013-05-29 00:33:00,79.0,-99.9,30.02,ESE,107,9.0,14.0,-999,-99.99,,,-99.99,,2013-05-29 04:33:00,
2013-05-29 00:42:00,80.0,-99.9,30.02,ESE,106,9.0,14.0,-999,-99.99,,,-99.99,,2013-05-29 04:42:00,
2013-05-29 00:53:00,80.0,-99.9,30.01,East,96,8.0,15.0,-999,-99.99,,,-99.99,,2013-05-29 04:53:00,
2013-05-29 01:03:00,80.0,-99.9,30.01,East,95,9.0,17.0,-999,-99.99,,,-99.99,,2013-05-29 05:03:00,
2013-05-29 01:12:00,80.0,-99.9,30.01,East,94,9.0,17.0,-999,-99.99,,,-99.99,,2013-05-29 05:12:00,
2013-05-29 01:22:00,80.0,-99.9,30.01,East,92,9.0,13.0,-999,-99.99,,,-99.99,,2013-05-29 05:22:00,
2013-05-29 01:33:00,80.0,-99.9,30.01,ESE,102,7.0,12.0,-999,-99.99,,,-99.99,,2013-05-29 05:33:00,
2013-05-29 01:42:00,79.0,-99.9,30.01,East,93,7.0,14.0,-999,-99.99,,,-99.99,,2013-05-29 05:42:00,
2013-05-29 01:52:00,79.0,-99.9,30.01,East,101,9.0,16.0,-999,-99.99,,,-99.99,,2013-05-29 05:52:00,
2013-05-29 02:02:00,79.0,-99.9,30.01,East,96,11.0,17.0,-999,-99.99,,,-99.99,,2013-05-29 06:02:00,
2013-05-29 02:12:00,79.0,-99.9,30.01,ESE,106,11.0,16.0,-999,-99.99,,,-99.99,,2013-05-29 06:12:00,
2013-05-29 02:22:00,79.0,-99.9,30.01,ESE,109,9.0,18.0,-999,-99.99,,,-99.99,,2013-05-29 06:22:00,
2013-05-29 02:32:00,79.0,-99.9,30.01,ESE,105,9.0,15.0,-999,-99.99,,,-99.99,,2013-05-29 06:32:00,
2013-05-29 02:42:00,79.0,-99.9,30.01,ESE,104,6.0,14.0,-999,-99.99,,,-99.99,,2013-05-29 06:42:00,
2013-05-29 02:52:00,79.0,-99.9,30.01,ESE,111,7.0,13.0,-999,-99.99,,,-99.99,,2013-05-29 06:52:00,
2013-05-29 03:01:00,79.0,-99.9,30.00,East,93,8.0,13.0,-999,-99.99,,,-99.99,,2013-05-29 07:01:00,
2013-05-29 03:12:00,79.0,-99.9,29.99,East,96,7.0,13.0,-999,-99.99,,,-99.99,,2013-05-29 07:12:00,
2013-05-29 03:22:00,79.0,-99.9,29.99,East,96,7.0,11.0,-999,-99.99,,,-99.99,,2013-05-29 07:22:00,
2013-05-29 03:35:00,79.0,-99.9,29.99,East,96,7.0,13.0,-999,-99.99,,,-99.99,,2013-05-29 07:35:00,
2013-05-29 03:42:00,79.0,-99.9,29.98,East,95,10.0,14.0,-999,-99.99,,,-99.99,,2013-05-29 07:42:00,
2013-05-29 03:53:00,79.0,-99.9,29.98,East,87,11.0,15.0,-999,-99.99,,,-99.99,,2013-05-29 07:53:00,
2013-05-29 04:02:00,79.0,-99.9,29.98,East,90,8.0,12.0,-999,-99.99,,,-99.99,,2013-05-29 08:02:00,
2013-05-29 04:11:00,79.0,-99.9,29.98,East,95,9.0,15.0,-999,-99.99,,,-99.99,,2013-05-29 08:11:00,
2013-05-29 04:22:00,79.0,-99.9,29.98,East,97,8.0,13.0,-999,-99.99,,,-99.99,,2013-05-29 08:22:00,
2013-05-29 04:32:00,79.0,-99.9,29.98,East,101,9.0,13.0,-999,-99.99,,,-99.99,,2013-05-29 08:32:00,
2013-05-29 04:42:00,79.0,-99.9,29.97,East,96,7.0,15.0,-999,-99.99,,,-99.99,,2013-05-29 08:42:00,
2013-05-29 04:52:00,79.0,-99.9,29.97,East,96,6.0,11.0,-999,-99.99,,,-99.99,,2013-05-29 08:52:00,
2013-05-29 05:02:00,79.0,-99.9,29.97,ESE,107,8.0,14.0,-999,-99.99,,,-99.99,,2013-05-29 09:02:00,
2013-05-29 05:11:00,79.0,-99.9,29.97,East,93,9.0,13.0,-999,-99.99,,,-99.99,,2013-05-29 09:11:00,
2013-05-29 05:22:00,78.0,-99.9,29.97,East,98,8.0,11.0,-999,-99.99,,,-99.99,,2013-05-29 09:22:00,
2013-05-29 05:33:00,79.0,-99.9,29.97,East,99,8.0,12.0,-999,-99.99,,,-99.99,,2013-05-29 09:33:00,
2013-05-29 05:42:00,79.0,-99.9,29.97,East,97,6.0,14.0,-999,-99.99,,,-99.99,,2013-05-29 09:42:00,
2013-05-29 05:53:00,79.0,-99.9,29.98,ESE,118,6.0,11.0,-999,-99.99,,,-99.99,,2013-05-29 09:53:00,
2013-05-29 06:03:00,77.0,-99.9,29.98,SE,137,4.0,7.0,-999,-99.99,,,-99.99,,2013-05-29 10:03:00,
2013-05-29 06:12:00,74.0,-99.9,29.98,SSE,151,13.0,19.0,-999,-99.99,,,-99.99,,2013-05-29 10:12:00,
2013-05-29 06:22:00,73.0,-99.9,29.99,SE,139,10.0,16.0,-999,-99.99,,,-99.99,,2013-05-29 10:22:00,
2013-05-29 06:33:00,72.0,-99.9,29.98,SE,140,12.0,17.0,-999,-99.99,,,-99.99,,2013-05-29 10:33:00,
2013-05-29 06:42:00,72.0,-99.9,29.98,SSE,153,9.0,17.0,-999,-99.99,,,-99.99,,2013-05-29 10:42:00,
2013-05-29 06:53:00,72.0,-99.9,29.98,SE,126,5.0,8.0,-999,-99.99,,,-99.99,,2013-05-29 10:53:00,
2013-05-29 07:02:00,73.0,-99.9,29.98,SE,146,3.0,6.0,-999,-99.99,,,-99.99,,2013-05-29 11:02:00,
2013-05-29 07:12:00,73.0,-99.9,29.98,SSE,159,2.0,5.0,-999,-99.99,,,-99.99,,2013-05-29 11:12:00,
2013-05-29 07:22:00,73.0,-99.9,29.98,SSE,163,2.0,4.0,-999,-99.99,,,-99.99,,2013-05-29 11:22:00,
2013-05-29 07:32:00,73.0,-99.9,29.99,East,95,2.0,3.0,-999,-99.99,,,-99.99,,2013-05-29 11:32:00,
2013-05-29 07:42:00,73.0,-99.9,29.98,ESE,120,2.0,3.0,-999,-99.99,,,-99.99,,2013-05-29 11:42:00,
2013-05-29 07:52:00,74.0,-99.9,29.99,ENE,76,4.0,4.0,-999,-99.99,,,-99.99,,2013-05-29 11:52:00,
2013-05-29 08:01:00,74.0,-99.9,29.99,ENE,66,4.0,6.0,-999,-99.99,,,-99.99,,2013-05-29 12:01:00,
2013-05-29 08:11:00,74.0,-99.9,30.00,ENE,72,10.0,13.0,-999,-99.99,,,-99.99,,2013-05-29 12:11:00,
2013-05-29 08:22:00,74.0,-99.9,30.00,East,86,7.0,11.0,-999,-99.99,,,-99.99,,2013-05-29 12:22:00,
2013-05-29 08:32:00,74.0,-99.9,30.00,ESE,102,5.0,9.0,-999,-99.99,,,-99.99,,2013-05-29 12:32:00,
2013-05-29 08:42:00,75.0,-99.9,29.99,East,98,6.0,9.0,-999,-99.99,,,-99.99,,2013-05-29 12:42:00,
2013-05-29 08:52:00,75.0,-99.9,29.99,ESE,103,7.0,12.0,-999,-99.99,,,-99.99,,2013-05-29 12:52:00,
2013-05-29 09:02:00,74.0,-99.9,29.99,East,101,6.0,15.0,-999,-99.99,,,-99.99,,2013-05-29 13:02:00,
2013-05-29 09:11:00,74.0,-99.9,30.00,ESE,110,6.0,13.0,-999,-99.99,,,-99.99,,2013-05-29 13:11:00,
2013-05-29 09:22:00,75.0,-99.9,30.00,ESE,111,8.0,14.0,-999,-99.99,,,-99.99,,2013-05-29 13:22:00,
2013-05-29 09:32:00,75.0,-99.9,30.01,East,96,6.0,11.0,-999,-99.99,,,-99.99,,2013-05-29 13:32:00,
2013-05-29 09:42:00,76.0,-99.9,30.01,East,88,8.0,11.0,-999,-99.99,,,-99.99,,2013-05-29 13:42:00,
2013-05-29 09:53:00,76.0,-99.9,30.01,East,80,8.0,12.0,-999,-99.99,,,-99.99,,2013-05-29 13:53:00,
2013-05-29 10:02:00,76.0,-99.9,30.01,East,83,8.0,13.0,-999,-99.99,,,-99.99,,2013-05-29 14:02:00,
2013-05-29 10:11:00,76.0,-99.9,30.01,East,79,8.0,11.0,-999,-99.99,,,-99.99,,2013-05-29 14:11:00,
2013-05-29 10:22:00,76.0,-99.9,30.01,ENE,78,9.0,12.0,-999,-99.99,,,-99.99,,2013-05-29 14:22:00,
2013-05-29 10:32:00,76.0,-99.9,30.02,East,93,6.0,9.0,-999,-99.99,,,-99.99,,2013-05-29 14:32:00,
2013-05-29 10:42:00,76.0,-99.9,30.02,East,90,7.0,9.0,-999,-99.99,,,-99.99,,2013-05-29 14:42:00,
2013-05-29 10:52:00,76.0,-99.9,30.01,ENE,77,7.0,10.0,-999,-99.99,,,-99.99,,2013-05-29 14:52:00,
2013-05-29 11:01:00,76.0,-99.9,30.01,ENE,76,7.0,10.0,-999,-99.99,,,-99.99,,2013-05-29 15:01:00,
2013-05-29 11:11:00,76.0,-99.9,30.01,ENE,76,7.0,10.0,-999,-99.99,,,-99.99,,2013-05-29 15:11:00,
2013-05-29 11:33:00,77.0,-99.9,30.02,East,80,8.0,11.0,-999,-99.99,,,-99.99,,2013-05-29 15:33:00,
2013-05-29 11:43:00,76.0,-99.9,30.02,East,84,9.0,15.0,-999,-99.99,,,-99.99,,2013-05-29 15:43:00,
2013-05-29 11:53:00,76.0,-99.9,30.02,ENE,68,8.0,11.0,-999,-99.99,,,-99.99,,2013-05-29 15:53:00,
2013-05-29 12:03:00,77.0,-99.9,30.02,ENE,74,10.0,12.0,-999,-99.99,,,-99.99,,2013-05-29 16:03:00,
2013-05-29 12:13:00,78.0,-99.9,30.03,ENE,74,10.0,13.0,-999,-99.99,,,-99.99,,2013-05-29 16:13:00,
2013-05-29 12:22:00,77.0,-99.9,30.03,East,86,8.0,12.0,-999,-99.99,,,-99.99,,2013-05-29 16:22:00,
2013-05-29 12:33:00,76.0,-99.9,30.03,East,94,6.0,13.0,-999,-99.99,,,-99.99,,2013-05-29 16:33:00,
2013-05-29 12:42:00,76.0,-99.9,30.03,East,82,11.0,15.0,-999,-99.99,,,-99.99,,2013-05-29 16:42:00,
2013-05-29 12:52:00,77.0,-99.9,30.02,ENE,62,8.0,15.0,-999,-99.99,,,-99.99,,2013-05-29 16:52:00,
2013-05-29 13:02:00,77.0,-99.9,30.03,ESE,119,5.0,8.0,-999,-99.99,,,-99.99,,2013-05-29 17:02:00,
2013-05-29 13:12:00,78.0,-99.9,30.02,East,94,7.0,11.0,-999,-99.99,,,-99.99,,2013-05-29 17:12:00,
2013-05-29 13:22:00,78.0,-99.9,30.01,East,99,10.0,15.0,-999,-99.99,,,-99.99,,2013-05-29 17:22:00,
2013-05-29 13:33:00,78.0,-99.9,30.01,East,99,10.0,16.0,-999,-99.99,,,-99.99,,2013-05-29 17:33:00,
2013-05-29 13:43:00,77.0,-99.9,30.02,East,101,9.0,16.0,-999,-99.99,,,-99.99,,2013-05-29 17:43:00,
2013-05-29 13:52:00,76.0,-99.9,30.03,ESE,114,8.0,14.0,-999,-99.99,,,-99.99,,2013-05-29 17:52:00,
2013-05-29 14:02:00,77.0,-99.9,30.03,ESE,106,8.0,15.0,-999,-99.99,,,-99.99,,2013-05-29 18:02:00,
2013-05-29 14:13:00,73.0,-99.9,30.04,South,187,13.0,20.0,-999,-99.99,,,-99.99,,2013-05-29 18:13:00,
2013-05-29 14:22:00,72.0,-99.9,30.03,SSW,195,10.0,18.0,-999,-99.99,,,-99.99,,2013-05-29 18:22:00,
2013-05-29 14:32:00,72.0,-99.9,30.02,SSW,198,9.0,15.0,-999,-99.99,,,-99.99,,2013-05-29 18:32:00,
2013-05-29 14:42:00,71.0,-99.9,30.02,SSW,197,9.0,17.0,-999,-99.99,,,-99.99,,2013-05-29 18:42:00,
2013-05-29 14:52:00,71.0,-99.9,30.03,SSW,202,8.0,13.0,-999,-99.99,,,-99.99,,2013-05-29 18:52:00,
2013-05-29 15:02:00,71.0,-99.9,30.01,SSW,199,3.0,9.0,-999,-99.99,,,-99.99,,2013-05-29 19:02:00,
2013-05-29 15:12:00,71.0,-99.9,30.00,South,174,2.0,4.0,-999,-99.99,,,-99.99,,2013-05-29 19:12:00,
2013-05-29 15:22:00,71.0,-99.9,30.01,ESE,120,4.0,6.0,-999,-99.99,,,-99.99,,2013-05-29 19:22:00,
2013-05-29 15:32:00,71.0,-99.9,30.03,ESE,105,5.0,9.0,-999,-99.99,,,-99.99,,2013-05-29 19:32:00,
2013-05-29 15:44:00,71.0,-99.9,30.02,East,82,3.0,5.0,-999,-99.99,,,-99.99,,2013-05-29 19:44:00,
2013-05-29 15:53:00,72.0,-99.9,30.01,East,92,5.0,6.0,-999,-99.99,,,-99.99,,2013-05-29 19:53:00,
2013-05-29 16:03:00,72.0,-99.9,30.01,East,90,8.0,12.0,-999,-99.99,,,-99.99,,2013-05-29 20:03:00,
2013-05-29 16:12:00,71.0,-99.9,30.00,East,97,4.0,13.0,-999,-99.99,,,-99.99,,2013-05-29 20:12:00,
2013-05-29 16:23:00,71.0,-99.9,30.00,East,87,2.0,5.0,-999,-99.99,,,-99.99,,2013-05-29 20:23:00,
2013-05-29 16:33:00,71.0,-99.9,30.00,NNE,24,3.0,4.0,-999,-99.99,,,-99.99,,2013-05-29 20:33:00,
2013-05-29 16:42:00,72.0,-99.9,30.00,ENE,58,4.0,8.0,-999,-99.99,,,-99.99,,2013-05-29 20:42:00,
2013-05-29 16:53:00,72.0,-99.9,29.99,ENE,76,4.0,6.0,-999,-99.99,,,-99.99,,2013-05-29 20:53:00,
2013-05-29 17:02:00,73.0,-99.9,29.98,NE,42,3.0,5.0,-999,-99.99,,,-99.99,,2013-05-29 21:02:00,
2013-05-29 17:12:00,73.0,-99.9,29.96,ESE,107,4.0,6.0,-999,-99.99,,,-99.99,,2013-05-29 21:12:00,
2013-05-29 17:22:00,73.0,-99.9,29.95,ESE,123,5.0,8.0,-999,-99.99,,,-99.99,,2013-05-29 21:22:00,
2013-05-29 17:34:00,73.0,-99.9,29.95,ESE,113,5.0,9.0,-999,-99.99,,,-99.99,,2013-05-29 21:34:00,
2013-05-29 17:44:00,73.0,-99.9,29.96,ENE,68,10.0,11.0,-999,-99.99,,,-99.99,,2013-05-29 21:44:00,
2013-05-29 17:53:00,73.0,-99.9,29.96,ENE,73,9.0,12.0,-999,-99.99,,,-99.99,,2013-05-29 21:53:00,
2013-05-29 18:03:00,74.0,-99.9,29.96,ENE,73,9.0,12.0,-999,-99.99,,,-99.99,,2013-05-29 22:03:00,
2013-05-29 18:13:00,74.0,-99.9,29.96,East,81,9.0,13.0,-999,-99.99,,,-99.99,,2013-05-29 22:13:00,
2013-05-29 18:23:00,74.0,-99.9,29.96,East,82,9.0,13.0,-999,-99.99,,,-99.99,,2013-05-29 22:23:00,
2013-05-29 18:34:00,75.0,-99.9,29.96,East,80,11.0,14.0,-999,-99.99,,,-99.99,,2013-05-29 22:34:00,
2013-05-29 18:43:00,75.0,-99.9,29.96,ENE,69,10.0,15.0,-999,-99.99,,,-99.99,,2013-05-29 22:43:00,
2013-05-29 18:53:00,76.0,-99.9,29.97,ENE,71,11.0,13.0,-999,-99.99,,,-99.99,,2013-05-29 22:53:00,
2013-05-29 19:02:00,76.0,-99.9,29.97,ENE,72,9.0,13.0,-999,-99.99,,,-99.99,,2013-05-29 23:02:00,
2013-05-29 19:12:00,76.0,-99.9,29.97,East,81,7.0,10.0,-999,-99.99,,,-99.99,,2013-05-29 23:12:00,
2013-05-29 19:22:00,76.0,-99.9,29.97,East,88,5.0,10.0,-999,-99.99,,,-99.99,,2013-05-29 23:22:00,
2013-05-29 19:33:00,76.0,-99.9,29.97,East,90,9.0,13.0,-999,-99.99,,,-99.99,,2013-05-29 23:33:00,
2013-05-29 19:43:00,76.0,-99.9,29.97,East,97,6.0,11.0,-999,-99.99,,,-99.99,,2013-05-29 23:43:00,
2013-05-29 19:53:00,77.0,-99.9,29.96,East,99,6.0,12.0,-999,-99.99,,,-99.99,,2013-05-29 23:53:00,
2013-05-29 20:02:00,77.0,-99.9,29.97,East,101,6.0,9.0,-999,-99.99,,,-99.99,,2013-05-30 00:02:00,
2013-05-29 20:12:00,77.0,-99.9,29.97,East,101,7.0,10.0,-999,-99.99,,,-99.99,,2013-05-30 00:12:00,
2013-05-29 20:22:00,76.0,-99.9,29.97,ESE,104,8.0,13.0,-999,-99.99,,,-99.99,,2013-05-30 00:22:00,
2013-05-29 20:32:00,76.0,-99.9,29.97,ESE,103,6.0,11.0,-999,-99.99,,,-99.99,,2013-05-30 00:32:00,
2013-05-29 20:42:00,77.0,-99.9,29.97,ESE,113,6.0,13.0,-999,-99.99,,,-99.99,,2013-05-30 00:42:00,
2013-05-29 20:52:00,77.0,-99.9,29.98,ESE,107,4.0,9.0,-999,-99.99,,,-99.99,,2013-05-30 00:52:00,
2013-05-29 21:02:00,77.0,-99.9,29.98,ESE,112,6.0,13.0,-999,-99.99,,,-99.99,,2013-05-30 01:02:00,
2013-05-29 21:11:00,77.0,-99.9,29.98,ESE,115,5.0,9.0,-999,-99.99,,,-99.99,,2013-05-30 01:11:00,
2013-05-29 21:22:00,77.0,-99.9,29.98,ESE,116,5.0,7.0,-999,-99.99,,,-99.99,,2013-05-30 01:22:00,
2013-05-29 21:32:00,77.0,-99.9,29.98,ESE,108,3.0,8.0,-999,-99.99,,,-99.99,,2013-05-30 01:32:00,
2013-05-29 21:42:00,77.0,-99.9,29.98,East,97,3.0,5.0,-999,-99.99,,,-99.99,,2013-05-30 01:42:00,
2013-05-29 21:52:00,77.0,-99.9,29.98,ENE,74,4.0,5.0,-999,-99.99,,,-99.99,,2013-05-30 01:52:00,
2013-05-29 22:02:00,77.0,-99.9,29.98,ENE,76,2.0,4.0,-999,-99.99,,,-99.99,,2013-05-30 02:02:00,
2013-05-29 22:12:00,77.0,-99.9,29.99,ENE,77,4.0,4.0,-999,-99.99,,,-99.99,,2013-05-30 02:12:00,
2013-05-29 22:22:00,77.0,-99.9,29.99,ENE,66,5.0,6.0,-999,-99.99,,,-99.99,,2013-05-30 02:22:00,
2013-05-29 22:32:00,76.0,-99.9,30.00,ESE,102,7.0,16.0,-999,-99.99,,,-99.99,,2013-05-30 02:32:00,
2013-05-29 22:42:00,76.0,-99.9,30.00,ESE,102,7.0,16.0,-999,-99.99,,,-99.99,,2013-05-30 02:42:00,
2013-05-29 22:52:00,76.0,-99.9,30.00,ESE,102,7.0,16.0,-999,-99.99,,,-99.99,,2013-05-30 02:52:00,
2013-05-29 23:02:00,74.0,-99.9,30.00,East,82,9.0,12.0,-999,-99.99,,,-99.99,,2013-05-30 03:02:00,
2013-05-29 23:12:00,74.0,-99.9,30.00,East,91,7.0,14.0,-999,-99.99,,,-99.99,,2013-05-30 03:12:00,
2013-05-29 23:22:00,74.0,-99.9,30.00,East,82,9.0,14.0,-999,-99.99,,,-99.99,,2013-05-30 03:22:00,
2013-05-29 23:33:00,74.0,-99.9,30.00,East,79,11.0,16.0,-999,-99.99,,,-99.99,,2013-05-30 03:33:00,
2013-05-29 23:43:00,74.0,-99.9,30.00,ENE,78,10.0,16.0,-999,-99.99,,,-99.99,,2013-05-30 03:43:00,
2013-05-29 23:53:00,74.0,-99.9,30.00,ENE,77,14.0,18.0,-999,-99.99,,,-99.99,,2013-05-30 03:53:00,